createdAt,value
2023-01-17T00:02:06.417Z,96925.19
2023-01-17T00:04:52.087Z,96923.25
2023-01-17T00:07:41.978Z,96932.72
2023-01-17T00:10:14.222Z,96937.91
2023-01-17T00:12:48.124Z,96937.53
2023-01-17T00:15:19.960Z,96922.47
2023-01-17T00:17:49.452Z,96932.53
2023-01-17T00:20:37.583Z,96946.25
2023-01-17T00:23:27.625Z,96921.34
2023-01-17T00:26:05.304Z,96949.34
2023-01-17T00:28:35.815Z,96946.31
2023-01-17T00:31:03.888Z,96952.59
2023-01-17T00:33:31.128Z,96962.47
2023-01-17T00:36:00.184Z,96951.81
2023-01-17T00:38:31.542Z,96964.41
2023-01-17T00:41:03.310Z,96956.97
2023-01-17T00:43:50.003Z,96964.88
2023-01-17T00:46:36.212Z,96976.31
2023-01-17T00:49:22.757Z,96968.69
2023-01-17T00:52:08.936Z,96953.16
2023-01-17T00:54:56.461Z,96975.19
2023-01-17T00:57:42.489Z,96995.72
2023-01-17T01:00:30.291Z,96991.09
2023-01-17T01:03:17.062Z,96998.50
2023-01-17T01:06:03.183Z,97002.66
2023-01-17T01:08:49.408Z,97021.81
2023-01-17T01:11:39.517Z,97004.94
2023-01-17T01:14:27.134Z,97022.81
2023-01-17T01:17:13.253Z,97014.94
2023-01-17T01:19:59.364Z,97031.34
2023-01-17T01:22:45.153Z,97037.28
2023-01-17T01:25:30.988Z,97038.56
2023-01-17T01:28:24.676Z,97042.25
2023-01-17T01:31:10.244Z,97055.31
2023-01-17T01:33:38.788Z,97053.06
2023-01-17T01:36:10.412Z,97051.75
2023-01-17T01:38:38.976Z,97056.13
2023-01-17T01:41:08.097Z,97056.13
2023-01-17T01:43:46.643Z,97068.41
2023-01-17T01:46:21.072Z,97081.94
2023-01-17T01:48:54.421Z,97095.25
2023-01-17T01:51:27.855Z,97096.56
2023-01-17T01:54:04.116Z,97094.63
2023-01-17T01:56:33.671Z,97093.66
2023-01-17T01:59:05.331Z,97096.56
2023-01-17T02:01:37.593Z,97101.38
2023-01-17T02:04:10.242Z,97087.41
2023-01-17T02:06:41.197Z,97089.81
2023-01-17T02:09:12.917Z,97089.50
2023-01-17T02:11:42.341Z,97073.88
2023-01-17T02:14:16.944Z,97076.13
2023-01-17T02:17:08.344Z,97073.56
2023-01-17T02:20:37.658Z,97075.97
2023-01-17T02:23:50.337Z,97082.56
2023-01-17T02:26:57.140Z,97089.66
2023-01-17T02:30:28.704Z,97100.41
2023-01-17T02:33:18.092Z,97097.50
2023-01-17T02:35:57.629Z,97107.34
2023-01-17T02:38:38.309Z,97114.41
2023-01-17T02:41:12.364Z,97097.06
2023-01-17T02:43:41.503Z,97099.16
2023-01-17T02:46:11.534Z,97098.97
2023-01-17T02:48:40.665Z,97103.00
2023-01-17T02:51:51.182Z,97107.97
2023-01-17T02:54:52.207Z,97106.84
2023-01-17T02:57:46.561Z,97111.84
2023-01-17T03:00:24.687Z,97119.56
2023-01-17T03:03:06.988Z,97110.53
2023-01-17T03:05:43.855Z,97103.94
2023-01-17T03:08:13.553Z,97098.50
2023-01-17T03:10:44.065Z,97116.97
2023-01-17T03:13:12.349Z,97108.94
2023-01-17T03:15:41.866Z,97111.22
2023-01-17T03:18:16.042Z,97116.66
2023-01-17T03:20:45.073Z,97119.06
2023-01-17T03:23:13.669Z,97124.06
2023-01-17T03:25:42.196Z,97130.94
2023-01-17T03:28:11.918Z,97128.22
2023-01-17T03:30:40.286Z,97132.44
2023-01-17T03:33:09.690Z,97130.19
2023-01-17T03:35:39.413Z,97128.25
2023-01-17T03:38:07.945Z,97127.59
2023-01-17T03:40:36.521Z,97126.44
2023-01-17T03:43:04.825Z,97122.63
2023-01-17T03:45:33.362Z,97121.81
2023-01-17T03:48:01.944Z,97131.94
2023-01-17T03:50:30.293Z,97122.44
2023-01-17T03:53:00.609Z,97131.78
2023-01-17T03:55:29.378Z,97137.56
2023-01-17T03:57:57.660Z,97130.63
2023-01-17T04:00:26.350Z,97139.00
2023-01-17T04:02:55.413Z,97134.19
2023-01-17T04:05:23.746Z,97137.56
2023-01-17T04:07:52.801Z,97132.41
2023-01-17T04:10:22.638Z,97132.25
2023-01-17T04:12:51.010Z,97134.84
2023-01-17T04:15:19.372Z,97128.22
2023-01-17T04:17:47.892Z,97134.81
2023-01-17T04:20:22.786Z,97131.78
2023-01-17T04:22:51.399Z,97135.44
2023-01-17T04:25:21.143Z,97135.78
2023-01-17T04:27:49.728Z,97137.56
2023-01-17T04:30:18.464Z,97134.31
2023-01-17T04:32:47.293Z,97138.16
2023-01-17T04:35:16.027Z,97145.09
2023-01-17T04:37:44.384Z,97139.78
2023-01-17T04:40:14.645Z,97135.00
2023-01-17T04:42:46.381Z,97138.34
2023-01-17T04:45:16.094Z,97145.53
2023-01-17T04:47:44.686Z,97150.53
2023-01-17T04:50:13.980Z,97141.69
2023-01-17T04:52:42.583Z,97145.75
2023-01-17T04:55:11.448Z,97149.72
2023-01-17T04:57:39.920Z,97156.81
2023-01-17T05:00:13.432Z,97150.22
2023-01-17T05:02:42.979Z,97160.75
2023-01-17T05:05:13.336Z,97155.81
2023-01-17T05:07:41.902Z,97149.56
2023-01-17T05:10:12.414Z,97140.88
2023-01-17T05:12:40.987Z,97151.34
2023-01-17T05:15:12.356Z,97152.59
2023-01-17T05:17:40.719Z,97149.03
2023-01-17T05:20:11.269Z,97149.81
2023-01-17T05:22:39.871Z,97152.72
2023-01-17T05:25:09.513Z,97152.25
2023-01-17T05:27:38.105Z,97145.31
2023-01-17T05:30:08.233Z,97144.53
2023-01-17T05:32:38.425Z,97156.31
2023-01-17T05:35:08.532Z,97157.69
2023-01-17T05:37:37.081Z,97157.56
2023-01-17T05:40:09.813Z,97157.19
2023-01-17T05:42:38.475Z,97149.66
2023-01-17T05:45:09.882Z,97158.00
2023-01-17T05:47:40.098Z,97152.22
2023-01-17T05:50:09.596Z,97156.25
2023-01-17T05:52:37.889Z,97154.97
2023-01-17T05:55:07.506Z,97153.03
2023-01-17T05:57:36.442Z,97158.00
2023-01-17T06:00:06.565Z,97158.19
2023-01-17T06:02:34.958Z,97165.13
2023-01-17T06:05:05.659Z,97159.84
2023-01-17T06:07:34.849Z,97158.69
2023-01-17T06:10:03.422Z,97160.94
2023-01-17T06:12:32.283Z,97163.31
2023-01-17T06:15:01.013Z,97158.19
2023-01-17T06:17:29.456Z,97161.06
2023-01-17T06:19:57.851Z,97160.94
2023-01-17T06:22:28.148Z,97151.16
2023-01-17T06:24:56.739Z,97155.59
2023-01-17T06:27:25.079Z,97161.38
2023-01-17T06:29:53.474Z,97163.47
2023-01-17T06:32:22.391Z,97170.72
2023-01-17T06:34:50.593Z,97166.50
2023-01-17T06:37:19.185Z,97167.16
2023-01-17T06:39:49.078Z,97173.91
2023-01-17T06:42:17.633Z,97172.94
2023-01-17T06:44:46.043Z,97171.34
2023-01-17T06:47:14.655Z,97169.59
2023-01-17T06:49:43.206Z,97167.94
2023-01-17T06:52:11.723Z,97163.63
2023-01-17T06:54:40.018Z,97173.28
2023-01-17T06:57:10.041Z,97168.28
2023-01-17T06:59:38.434Z,97178.53
2023-01-17T07:02:07.100Z,97177.47
2023-01-17T07:04:36.495Z,97179.81
2023-01-17T07:07:05.086Z,97184.81
2023-01-17T07:09:33.652Z,97181.81
2023-01-17T07:12:02.236Z,97182.44
2023-01-17T07:14:32.509Z,97190.03
2023-01-17T07:17:00.993Z,97183.66
2023-01-17T07:19:29.529Z,97184.31
2023-01-17T07:21:58.257Z,97184.59
2023-01-17T07:24:26.830Z,97180.72
2023-01-17T07:26:55.498Z,97180.50
2023-01-17T07:29:24.303Z,97185.56
2023-01-17T07:31:54.225Z,97186.97
2023-01-17T07:34:22.573Z,97190.28
2023-01-17T07:36:51.250Z,97194.31
2023-01-17T07:39:19.929Z,97195.16
2023-01-17T07:41:50.594Z,97192.00
2023-01-17T07:44:21.034Z,97199.22
2023-01-17T07:46:49.634Z,97192.81
2023-01-17T07:49:20.345Z,97200.25
2023-01-17T07:51:48.949Z,97202.63
2023-01-17T07:54:17.734Z,97193.22
2023-01-17T07:56:47.127Z,97193.09
2023-01-17T07:59:15.739Z,97192.41
2023-01-17T08:01:44.251Z,97193.16
2023-01-17T08:04:14.196Z,97189.94
2023-01-17T08:06:47.764Z,97188.72
2023-01-17T08:09:16.340Z,97196.38
2023-01-17T08:11:44.808Z,97193.41
2023-01-17T08:14:13.306Z,97196.84
2023-01-17T08:16:41.967Z,97205.81
2023-01-17T08:19:10.661Z,97199.94
2023-01-17T08:21:39.336Z,97199.06
2023-01-17T08:24:14.962Z,97206.56
2023-01-17T08:26:43.597Z,97200.53
2023-01-17T08:29:12.153Z,97198.09
2023-01-17T08:31:40.873Z,97197.84
2023-01-17T08:34:09.495Z,97202.91
2023-01-17T08:36:38.082Z,97199.34
2023-01-17T08:39:06.689Z,97194.66
2023-01-17T08:41:37.052Z,97198.66
2023-01-17T08:44:07.438Z,97203.19
2023-01-17T08:46:35.988Z,97200.00
2023-01-17T08:49:04.870Z,97200.81
2023-01-17T08:51:34.854Z,97201.44
2023-01-17T08:54:03.722Z,97200.19
2023-01-17T08:56:32.475Z,97192.47
2023-01-17T08:59:03.039Z,97190.88
2023-01-17T09:01:41.067Z,97194.22
2023-01-17T09:04:09.833Z,97180.94
2023-01-17T09:06:39.758Z,97184.63
2023-01-17T09:09:11.013Z,97190.22
2023-01-17T09:11:39.864Z,97188.78
2023-01-17T09:14:12.771Z,97197.78
2023-01-17T09:16:41.343Z,97195.34
2023-01-17T09:19:11.203Z,97203.19
2023-01-17T09:21:39.884Z,97199.56
2023-01-17T09:24:08.627Z,97202.81
2023-01-17T09:26:37.370Z,97201.94
2023-01-17T09:29:06.082Z,97199.88
2023-01-17T09:31:36.926Z,97199.25
2023-01-17T09:34:05.605Z,97200.41
2023-01-17T09:36:34.903Z,97207.13
2023-01-17T09:39:05.633Z,97202.19
2023-01-17T09:41:37.752Z,97209.28
2023-01-17T09:44:19.441Z,97211.84
2023-01-17T09:46:52.422Z,97216.50
2023-01-17T09:49:34.766Z,97217.81
2023-01-17T09:52:04.696Z,97221.97
2023-01-17T09:54:37.388Z,97221.69
2023-01-17T09:57:14.759Z,97222.16
2023-01-17T10:00:03.234Z,97231.47
2023-01-17T10:03:16.027Z,97225.81
2023-01-17T10:06:01.067Z,97226.94
2023-01-17T10:08:47.580Z,97221.66
2023-01-17T10:11:34.926Z,97223.59
2023-01-17T10:14:22.723Z,97216.19
2023-01-17T10:17:02.339Z,97221.19
2023-01-17T10:20:02.226Z,97223.44
2023-01-17T10:23:00.654Z,97220.06
2023-01-17T10:25:46.385Z,97208.97
2023-01-17T10:28:18.972Z,97219.59
2023-01-17T10:30:52.440Z,97217.94
2023-01-17T10:33:27.042Z,97206.38
2023-01-17T10:36:00.693Z,97202.66
2023-01-17T10:38:35.972Z,97209.44
2023-01-17T10:41:10.843Z,97208.63
2023-01-17T10:43:48.250Z,97211.22
2023-01-17T10:46:22.407Z,97203.63
2023-01-17T10:48:54.381Z,97209.06
2023-01-17T10:52:09.616Z,97202.94
2023-01-17T10:55:17.155Z,97201.63
2023-01-17T10:57:47.586Z,97203.06
2023-01-17T11:00:44.095Z,97199.38
2023-01-17T11:03:14.748Z,97187.94
2023-01-17T11:05:44.501Z,97201.13
2023-01-17T11:08:16.187Z,97196.75
2023-01-17T11:10:47.123Z,97198.63
2023-01-17T11:13:30.580Z,97194.81
2023-01-17T11:16:02.391Z,97189.59
2023-01-17T11:18:36.475Z,97188.16
2023-01-17T11:21:12.151Z,97183.28
2023-01-17T11:23:45.572Z,97185.34
2023-01-17T11:26:25.791Z,97186.88
2023-01-17T11:28:54.496Z,97187.69
2023-01-17T11:31:28.904Z,97178.47
2023-01-17T11:34:20.511Z,97176.78
2023-01-17T11:36:49.220Z,97174.22
2023-01-17T11:39:27.796Z,97175.78
2023-01-17T11:41:56.516Z,97177.22
2023-01-17T11:44:28.062Z,97184.59
2023-01-17T11:47:17.129Z,97182.69
2023-01-17T11:49:48.416Z,97184.44
2023-01-17T11:52:25.452Z,97177.06
2023-01-17T11:54:57.202Z,97170.78
2023-01-17T11:57:29.106Z,97169.19
2023-01-17T12:00:12.143Z,97163.53
2023-01-17T12:03:15.194Z,97155.78
2023-01-17T12:06:05.118Z,97150.69
2023-01-17T12:08:57.239Z,97153.53
2023-01-17T12:11:39.917Z,97154.09
2023-01-17T12:14:20.081Z,97152.22
2023-01-17T12:17:09.370Z,97146.97
2023-01-17T12:20:01.177Z,97141.25
2023-01-17T12:22:51.847Z,97133.69
2023-01-17T12:25:29.992Z,97129.28
2023-01-17T12:28:15.846Z,97137.22
2023-01-17T12:31:10.089Z,97134.34
2023-01-17T12:33:48.631Z,97127.41
2023-01-17T12:36:39.038Z,97127.41
2023-01-17T12:39:12.135Z,97130.00
2023-01-17T12:41:56.521Z,97123.41
2023-01-17T12:44:48.064Z,97121.47
2023-01-17T12:47:19.679Z,97121.81
2023-01-17T12:49:55.519Z,97117.91
2023-01-17T12:52:38.709Z,97117.03
2023-01-17T12:55:17.586Z,97111.88
2023-01-17T12:57:52.956Z,97116.94
2023-01-17T13:00:29.784Z,97110.88
2023-01-17T13:03:09.259Z,97123.41
2023-01-17T13:05:41.928Z,97117.97
2023-01-17T13:08:21.191Z,97129.38
2023-01-17T13:10:56.139Z,97120.66
2023-01-17T13:13:27.689Z,97130.13
2023-01-17T13:16:04.472Z,97135.63
2023-01-17T13:18:33.445Z,97128.41
2023-01-17T13:21:19.170Z,97128.44
2023-01-17T13:24:27.117Z,97126.56
2023-01-17T13:27:24.715Z,97125.09
2023-01-17T13:30:10.224Z,97134.38
2023-01-17T13:33:29.528Z,97139.81
2023-01-17T13:36:21.843Z,97132.91
2023-01-17T13:39:14.955Z,97143.13
2023-01-17T13:41:51.317Z,97143.19
2023-01-17T13:44:24.248Z,97137.88
2023-01-17T13:47:07.356Z,97143.94
2023-01-17T13:49:48.476Z,97140.16
2023-01-17T13:52:35.736Z,97139.72
2023-01-17T13:55:08.863Z,97137.38
2023-01-17T13:57:46.742Z,97140.41
2023-01-17T14:01:00.167Z,97144.78
2023-01-17T14:04:11.830Z,97139.00
2023-01-17T14:06:44.824Z,97136.97
2023-01-17T14:09:23.494Z,97137.03
2023-01-17T14:11:58.264Z,97128.69
2023-01-17T14:14:51.331Z,97126.72
2023-01-17T14:17:51.909Z,97126.88
2023-01-17T14:20:49.977Z,97129.84
2023-01-17T14:23:59.403Z,97133.75
2023-01-17T14:26:43.959Z,97132.25
2023-01-17T14:29:49.802Z,97132.78
2023-01-17T14:32:21.700Z,97134.13
2023-01-17T14:34:53.392Z,97124.41
2023-01-17T14:37:47.965Z,97137.22
2023-01-17T14:40:22.179Z,97136.88
2023-01-17T14:43:00.812Z,97128.16
2023-01-17T14:45:32.360Z,97126.44
2023-01-17T14:48:04.141Z,97128.44
2023-01-17T14:50:39.260Z,97120.56
2023-01-17T14:53:20.336Z,97121.72
2023-01-17T14:56:01.099Z,97124.13
2023-01-17T14:58:32.174Z,97124.91
2023-01-17T15:01:04.010Z,97124.00
2023-01-17T15:03:37.015Z,97116.66
2023-01-17T15:06:14.226Z,97127.53
2023-01-17T15:08:43.273Z,97129.00
2023-01-17T15:11:21.302Z,97131.38
2023-01-17T15:13:54.826Z,97132.50
2023-01-17T15:16:27.636Z,97137.22
2023-01-17T15:18:57.946Z,97147.41
2023-01-17T15:21:30.079Z,97143.81
2023-01-17T15:24:00.868Z,97145.00
2023-01-17T15:26:36.391Z,97148.84
2023-01-17T15:29:07.941Z,97152.69
2023-01-17T15:31:44.195Z,97141.00
2023-01-17T15:34:26.884Z,97142.00
2023-01-17T15:36:58.245Z,97135.16
2023-01-17T15:39:30.280Z,97131.66
2023-01-17T15:42:04.439Z,97133.31
2023-01-17T15:44:47.954Z,97141.41
2023-01-17T15:47:31.111Z,97144.84
2023-01-17T15:50:01.072Z,97140.81
2023-01-17T15:52:30.899Z,97144.03
2023-01-17T15:55:12.437Z,97152.66
2023-01-17T15:57:47.928Z,97154.03
2023-01-17T16:00:24.010Z,97158.59
2023-01-17T16:02:57.660Z,97160.72
2023-01-17T16:05:43.482Z,97157.16
2023-01-17T16:08:39.730Z,97162.97
2023-01-17T16:11:12.446Z,97164.28
2023-01-17T16:13:47.423Z,97162.69
2023-01-17T16:16:25.928Z,97171.88
2023-01-17T16:19:01.934Z,97168.06
2023-01-17T16:21:33.240Z,97175.00
2023-01-17T16:24:02.850Z,97170.81
2023-01-17T16:26:31.360Z,97176.78
2023-01-17T16:29:01.588Z,97178.56
2023-01-17T16:31:30.067Z,97182.91
2023-01-17T16:33:58.388Z,97182.56
2023-01-17T16:36:26.859Z,97179.69
2023-01-17T16:38:55.409Z,97186.78
2023-01-17T16:41:23.886Z,97178.41
2023-01-17T16:44:03.516Z,97178.88
2023-01-17T16:46:35.106Z,97179.19
2023-01-17T16:49:03.755Z,97191.75
2023-01-17T16:51:34.671Z,97191.09
2023-01-17T16:54:03.581Z,97199.31
2023-01-17T16:56:32.142Z,97198.66
2023-01-17T16:59:02.069Z,97206.53
2023-01-17T17:01:30.892Z,97212.81
2023-01-17T17:03:59.408Z,97213.47
2023-01-17T17:06:28.334Z,97212.81
2023-01-17T17:08:57.096Z,97219.09
2023-01-17T17:11:25.709Z,97215.53
2023-01-17T17:13:54.715Z,97223.44
2023-01-17T17:16:29.844Z,97223.28
2023-01-17T17:19:00.333Z,97219.25
2023-01-17T17:21:30.305Z,97227.78
2023-01-17T17:24:00.540Z,97238.88
2023-01-17T17:26:32.051Z,97236.16
2023-01-17T17:29:00.682Z,97240.47
2023-01-17T17:31:30.868Z,97246.56
2023-01-17T17:34:00.881Z,97252.78
2023-01-17T17:36:30.170Z,97253.03
2023-01-17T17:39:00.023Z,97256.16
2023-01-17T17:41:31.533Z,97258.59
2023-01-17T17:44:02.672Z,97261.56
2023-01-17T17:46:33.980Z,97253.38
2023-01-17T17:49:02.984Z,97254.97
2023-01-17T17:51:34.404Z,97258.00
2023-01-17T17:54:06.012Z,97263.22
2023-01-17T17:56:35.624Z,97262.22
2023-01-17T17:59:06.497Z,97265.91
2023-01-17T18:01:38.467Z,97262.31
2023-01-17T18:04:08.407Z,97260.44
2023-01-17T18:06:38.597Z,97266.31
2023-01-17T18:09:08.599Z,97277.59
2023-01-17T18:11:38.617Z,97275.44
2023-01-17T18:14:11.776Z,97285.75
2023-01-17T18:16:44.998Z,97281.41
2023-01-17T18:19:17.037Z,97282.53
2023-01-17T18:21:45.637Z,97285.88
2023-01-17T18:24:17.052Z,97290.84
2023-01-17T18:26:47.157Z,97291.66
2023-01-17T18:29:18.418Z,97294.03
2023-01-17T18:31:50.423Z,97296.59
2023-01-17T18:34:23.742Z,97302.84
2023-01-17T18:36:53.120Z,97301.81
2023-01-17T18:39:25.154Z,97306.84
2023-01-17T18:41:55.134Z,97310.34
2023-01-17T18:44:24.125Z,97308.72
2023-01-17T18:46:55.249Z,97305.50
2023-01-17T18:49:24.206Z,97308.44
2023-01-17T18:51:52.753Z,97305.75
2023-01-17T18:54:22.165Z,97311.28
2023-01-17T18:56:51.312Z,97317.69
2023-01-17T18:59:21.304Z,97310.16
2023-01-17T19:01:49.936Z,97314.47
2023-01-17T19:04:20.635Z,97317.06
2023-01-17T19:06:50.160Z,97323.81
2023-01-17T19:09:19.399Z,97326.06
2023-01-17T19:11:48.023Z,97334.72
2023-01-17T19:14:16.794Z,97334.84
2023-01-17T19:16:49.011Z,97336.84
2023-01-17T19:19:22.069Z,97334.19
2023-01-17T19:21:52.802Z,97337.13
2023-01-17T19:24:21.101Z,97340.97
2023-01-17T19:26:54.942Z,97346.50
2023-01-17T19:29:23.461Z,97345.63
2023-01-17T19:31:51.801Z,97348.78
2023-01-17T19:34:21.883Z,97345.69
2023-01-17T19:36:50.060Z,97353.31
2023-01-17T19:39:18.757Z,97355.00
2023-01-17T19:41:47.904Z,97362.66
2023-01-17T19:44:16.838Z,97356.19
2023-01-17T19:46:46.065Z,97359.34
2023-01-17T19:49:23.990Z,97355.09
2023-01-17T19:51:54.318Z,97365.03
2023-01-17T19:54:23.422Z,97361.78
2023-01-17T19:56:52.354Z,97365.56
2023-01-17T19:59:21.011Z,97373.69
2023-01-17T20:01:50.168Z,97376.88
2023-01-17T20:04:19.302Z,97378.44
2023-01-17T20:06:48.279Z,97380.66
2023-01-17T20:09:18.232Z,97380.97
2023-01-17T20:11:46.903Z,97376.13
2023-01-17T20:14:16.737Z,97389.19
2023-01-17T20:16:47.547Z,97386.91
2023-01-17T20:19:16.906Z,97393.53
2023-01-17T20:21:45.853Z,97394.50
2023-01-17T20:24:16.308Z,97396.13
2023-01-17T20:26:46.425Z,97404.34
2023-01-17T20:29:17.398Z,97406.66
2023-01-17T20:31:46.894Z,97400.66
2023-01-17T20:34:19.499Z,97403.84
2023-01-17T20:36:48.372Z,97413.44
2023-01-17T20:39:17.502Z,97419.75
2023-01-17T20:41:49.272Z,97413.13
2023-01-17T20:44:18.626Z,97419.22
2023-01-17T20:46:48.110Z,97429.72
2023-01-17T20:49:19.961Z,97422.19
2023-01-17T20:51:49.150Z,97422.56
2023-01-17T20:54:20.106Z,97424.97
2023-01-17T20:56:51.434Z,97420.06
2023-01-17T20:59:22.831Z,97423.66
2023-01-17T21:01:51.897Z,97425.22
2023-01-17T21:04:25.624Z,97430.84
2023-01-17T21:06:55.520Z,97425.44
2023-01-17T21:09:24.444Z,97430.16
2023-01-17T21:12:00.800Z,97434.00
2023-01-17T21:14:29.524Z,97435.03
2023-01-17T21:16:57.821Z,97435.47
2023-01-17T21:19:28.044Z,97434.13
2023-01-17T21:21:57.254Z,97440.59
2023-01-17T21:24:28.930Z,97436.81
2023-01-17T21:26:58.973Z,97448.72
2023-01-17T21:29:29.111Z,97450.34
2023-01-17T21:31:58.118Z,97457.88
2023-01-17T21:34:27.608Z,97448.19
2023-01-17T21:36:56.176Z,97451.28
2023-01-17T21:39:25.175Z,97447.50
2023-01-17T21:41:53.967Z,97443.84
2023-01-17T21:44:24.358Z,97451.16
2023-01-17T21:46:56.001Z,97449.81
2023-01-17T21:49:25.380Z,97449.81
2023-01-17T21:52:26.221Z,97454.28
2023-01-17T21:55:12.095Z,97464.66
2023-01-17T21:57:58.338Z,97462.78
2023-01-17T22:00:31.145Z,97461.41
2023-01-17T22:02:59.684Z,97462.25
2023-01-17T22:05:28.266Z,97467.63
2023-01-17T22:08:23.530Z,97464.53
2023-01-17T22:10:52.096Z,97462.09
2023-01-17T22:13:21.365Z,97476.66
2023-01-17T22:16:00.139Z,97476.66
2023-01-17T22:18:29.470Z,97473.03
2023-01-17T22:20:58.817Z,97475.97
2023-01-17T22:23:31.034Z,97469.66
2023-01-17T22:26:04.397Z,97476.41
2023-01-17T22:28:34.131Z,97483.13
2023-01-17T22:31:10.589Z,97477.44
2023-01-17T22:33:40.894Z,97476.50
2023-01-17T22:36:13.618Z,97476.25
2023-01-17T22:38:43.352Z,97483.38
2023-01-17T22:41:16.049Z,97474.78
2023-01-17T22:43:47.394Z,97473.56
2023-01-17T22:46:21.355Z,97470.31
2023-01-17T22:48:50.586Z,97471.00
2023-01-17T22:51:21.228Z,97482.19
2023-01-17T22:53:52.320Z,97484.34
2023-01-17T22:56:23.587Z,97481.09
2023-01-17T22:58:52.369Z,97477.44
2023-01-17T23:01:24.706Z,97474.22
2023-01-17T23:03:55.713Z,97473.41
2023-01-17T23:06:27.443Z,97484.19
2023-01-17T23:08:58.187Z,97486.22
2023-01-17T23:11:46.180Z,97483.81
2023-01-17T23:14:18.441Z,97481.50
2023-01-17T23:17:09.060Z,97481.09
2023-01-17T23:19:40.596Z,97489.72
2023-01-17T23:22:19.248Z,97489.31
2023-01-17T23:24:54.272Z,97495.66
2023-01-17T23:27:42.812Z,97493.22
2023-01-17T23:30:14.676Z,97493.34
2023-01-17T23:32:49.492Z,97488.06
2023-01-17T23:35:20.407Z,97492.78
2023-01-17T23:38:06.579Z,97491.72
2023-01-17T23:40:37.832Z,97500.75
2023-01-17T23:43:24.449Z,97494.56
2023-01-17T23:45:54.646Z,97492.00
2023-01-17T23:48:27.650Z,97498.88
2023-01-17T23:51:00.771Z,97493.50
2023-01-17T23:53:30.012Z,97497.94
2023-01-17T23:56:00.573Z,97485.13
2023-01-17T23:58:30.064Z,97493.22
